Time;durP1;ratioP1;P1;durP2;ratioP2;P2;SDS_P1;SDS_P2;PMS_P1;PMS_P2;Temp;Humidity;BMP_temperature;BMP_pressure;BME280_temperature;BME280_humidity;BME280_pressure;Samples;Min_cycle;Max_cycle;Signal;HPM_P1;HPM_P2
2021/03/29 00:01:01;;;;;;;9.70;5.87;;;10.40;99.90;;;;;;5013749;28;20479;-81
2021/03/29 00:03:34;;;;;;;7.83;5.20;;;10.40;99.90;;;;;;5014085;28;20550;-81
2021/03/29 00:06:03;;;;;;;7.33;6.17;;;10.40;99.90;;;;;;5013713;28;20426;-81
2021/03/29 00:08:33;;;;;;;7.80;5.70;;;10.40;99.90;;;;;;5012768;28;20424;-81
2021/03/29 00:11:06;;;;;;;13.30;6.00;;;10.40;99.90;;;;;;5013008;28;20921;-81
2021/03/29 00:13:33;;;;;;;8.17;5.90;;;10.50;99.90;;;;;;5013126;28;20529;-81
2021/03/29 00:16:01;;;;;;;10.73;6.30;;;10.40;99.90;;;;;;5012848;28;20423;-81
2021/03/29 00:18:28;;;;;;;6.20;5.43;;;10.40;99.90;;;;;;5017075;28;20940;-81
2021/03/29 00:21:05;;;;;;;8.30;5.67;;;10.40;99.90;;;;;;5016364;28;20451;-81
2021/03/29 00:23:35;;;;;;;13.97;7.20;;;10.50;99.90;;;;;;5016248;28;20448;-81
2021/03/29 00:26:09;;;;;;;11.77;5.90;;;10.40;99.90;;;;;;5016622;28;20432;-81
2021/03/29 00:28:42;;;;;;;7.60;5.87;;;10.40;99.90;;;;;;5017387;28;20458;-81
2021/03/29 00:31:11;;;;;;;12.50;5.73;;;10.40;99.90;;;;;;5016190;28;20420;-81
2021/03/29 00:33:41;;;;;;;8.40;7.33;;;10.40;99.90;;;;;;5016239;28;20472;-81
2021/03/29 00:36:09;;;;;;;14.13;6.40;;;10.40;99.90;;;;;;5015977;28;20491;-81
2021/03/29 00:38:38;;;;;;;10.00;6.00;;;10.30;99.90;;;;;;4999890;28;20815;-81
2021/03/29 00:41:11;;;;;;;7.90;5.97;;;10.40;99.90;;;;;;5016848;28;20435;-81
2021/03/29 00:43:41;;;;;;;8.67;5.77;;;10.40;99.90;;;;;;5027079;28;20449;-81
2021/03/29 00:46:09;;;;;;;9.80;6.10;;;10.30;99.90;;;;;;5019637;28;20501;-81
2021/03/29 00:48:42;;;;;;;10.20;5.20;;;10.30;99.90;;;;;;5019777;28;20509;-81
2021/03/29 00:51:23;;;;;;;15.47;6.00;;;10.30;99.90;;;;;;5035627;28;20415;-81
2021/03/29 00:54:05;;;;;;;15.10;6.40;;;10.30;99.90;;;;;;5010565;28;20479;-81
2021/03/29 00:56:35;;;;;;;12.57;5.83;;;10.30;99.90;;;;;;4980390;28;20479;-81
2021/03/29 00:59:05;;;;;;;9.33;5.90;;;10.20;99.90;;;;;;4996758;28;20413;-81
2021/03/29 01:01:41;;;;;;;10.47;5.87;;;10.30;99.90;;;;;;4996818;28;20887;-81
2021/03/29 01:04:10;;;;;;;11.43;6.43;;;10.30;99.90;;;;;;4996202;28;20412;-81
2021/03/29 01:06:42;;;;;;;7.30;5.90;;;10.30;99.90;;;;;;4979614;28;20437;-81
2021/03/29 01:09:17;;;;;;;11.90;6.33;;;10.20;99.90;;;;;;4996129;28;20448;-81
2021/03/29 01:11:55;;;;;;;10.63;6.53;;;10.20;99.90;;;;;;4979876;28;20758;-81
2021/03/29 01:14:27;;;;;;;18.60;7.10;;;10.10;99.90;;;;;;4996541;28;20555;-81
2021/03/29 01:17:05;;;;;;;12.97;6.67;;;10.20;99.90;;;;;;4995731;28;20916;-81
2021/03/29 01:19:59;;;;;;;12.87;6.80;;;10.20;99.90;;;;;;4995512;28;20465;-81
2021/03/29 01:22:35;;;;;;;10.17;6.67;;;10.10;99.90;;;;;;5011906;28;20480;-81
2021/03/29 01:25:09;;;;;;;9.83;6.20;;;10.10;99.90;;;;;;5021484;28;20430;-81
2021/03/29 01:28:05;;;;;;;8.17;6.57;;;10.10;99.90;;;;;;5035869;28;20500;-81
2021/03/29 01:30:35;;;;;;;7.90;6.80;;;10.10;99.90;;;;;;5034743;28;20411;-81
2021/03/29 01:33:06;;;;;;;10.13;6.30;;;10.10;99.90;;;;;;5034803;28;20418;-81
2021/03/29 01:35:37;;;;;;;12.60;6.70;;;10.00;99.90;;;;;;5035628;28;20435;-81
2021/03/29 01:38:05;;;;;;;11.57;7.07;;;10.00;99.90;;;;;;5050624;28;20410;-81
2021/03/29 01:40:38;;;;;;;9.00;6.47;;;10.00;99.90;;;;;;5034567;28;20533;-81
2021/03/29 01:43:08;;;;;;;12.20;6.33;;;10.00;99.90;;;;;;5018087;28;20810;-81
2021/03/29 01:45:39;;;;;;;9.07;5.70;;;10.00;99.90;;;;;;5034501;28;20492;-81
2021/03/29 01:48:09;;;;;;;13.60;6.97;;;10.00;99.90;;;;;;5035665;28;20514;-81
2021/03/29 01:50:41;;;;;;;10.60;6.87;;;9.90;99.90;;;;;;5018307;28;20426;-81
2021/03/29 01:53:09;;;;;;;11.43;6.47;;;9.90;99.90;;;;;;5033347;28;20492;-81
2021/03/29 01:55:37;;;;;;;12.87;6.13;;;9.80;99.90;;;;;;5028018;28;20460;-81
2021/03/29 01:58:08;;;;;;;11.43;6.03;;;9.80;99.90;;;;;;5035178;28;20415;-81
2021/03/29 02:01:19;;;;;;;11.37;6.20;;;9.70;99.90;;;;;;5034311;28;20423;-81
2021/03/29 02:03:48;;;;;;;12.37;7.60;;;9.70;99.90;;;;;;5052876;28;20510;-81
2021/03/29 02:06:20;;;;;;;10.13;6.17;;;9.70;99.90;;;;;;5037841;28;20577;-81
2021/03/29 02:08:49;;;;;;;11.07;7.30;;;9.60;99.90;;;;;;5034049;28;20443;-81
2021/03/29 02:11:20;;;;;;;8.70;6.17;;;9.50;99.90;;;;;;5034058;28;20762;-81
2021/03/29 02:13:56;;;;;;;11.30;6.83;;;9.50;99.90;;;;;;5034820;28;20888;-81
2021/03/29 02:16:30;;;;;;;14.13;7.00;;;9.50;99.90;;;;;;5033896;28;20477;-82
2021/03/29 02:19:03;;;;;;;12.20;7.17;;;9.50;99.90;;;;;;5033684;28;20947;-81
2021/03/29 02:21:39;;;;;;;9.27;6.97;;;9.50;99.90;;;;;;5034121;28;20411;-81
2021/03/29 02:24:12;;;;;;;9.90;6.63;;;9.50;99.90;;;;;;5024939;28;20450;-81
2021/03/29 02:26:47;;;;;;;9.87;7.40;;;9.50;99.90;;;;;;5014387;28;20420;-81
2021/03/29 02:29:27;;;;;;;12.10;7.00;;;9.50;99.90;;;;;;5015201;28;20491;-81
2021/03/29 02:31:59;;;;;;;12.10;6.67;;;9.50;99.90;;;;;;5015108;28;20404;-81
2021/03/29 02:34:25;;;;;;;9.40;7.30;;;9.40;99.90;;;;;;5014960;28;20490;-81
2021/03/29 02:36:55;;;;;;;13.67;7.30;;;9.40;99.90;;;;;;5013845;28;20455;-81
2021/03/29 02:39:22;;;;;;;12.60;7.80;;;9.40;99.90;;;;;;5013153;28;20956;-81
2021/03/29 02:41:54;;;;;;;12.07;7.23;;;9.30;99.90;;;;;;5014094;28;20424;-81
2021/03/29 02:44:22;;;;;;;15.93;8.20;;;9.30;99.90;;;;;;5014932;28;20423;-80
2021/03/29 02:46:51;;;;;;;9.13;7.90;;;9.30;99.90;;;;;;5013623;28;20493;-81
2021/03/29 02:49:21;;;;;;;11.40;7.50;;;9.30;99.90;;;;;;5014835;28;20731;-81
2021/03/29 02:51:48;;;;;;;7.30;6.37;;;9.30;99.90;;;;;;5014759;28;20892;-81
2021/03/29 02:54:23;;;;;;;11.80;7.60;;;9.30;99.90;;;;;;5023327;28;21037;-81
2021/03/29 02:56:50;;;;;;;9.43;7.40;;;9.30;99.90;;;;;;4997156;28;20529;-81
2021/03/29 02:59:20;;;;;;;15.67;8.37;;;9.20;99.90;;;;;;4997483;28;20433;-81
2021/03/29 03:01:53;;;;;;;11.27;8.20;;;9.20;99.90;;;;;;5013649;28;20419;-81
2021/03/29 03:04:24;;;;;;;13.10;7.70;;;9.20;99.90;;;;;;5014478;28;20427;-81
2021/03/29 03:06:54;;;;;;;17.63;8.50;;;9.20;99.90;;;;;;5013675;28;20416;-81
2021/03/29 03:09:23;;;;;;;11.70;7.90;;;9.20;99.90;;;;;;5013293;28;20915;-81
2021/03/29 03:11:52;;;;;;;15.17;7.27;;;9.20;99.90;;;;;;4997688;28;20412;-81
2021/03/29 03:14:24;;;;;;;13.50;8.53;;;9.20;99.90;;;;;;4997381;28;20571;-81
2021/03/29 03:16:50;;;;;;;16.23;7.73;;;9.10;99.90;;;;;;5013638;28;20428;-81
2021/03/29 03:19:21;;;;;;;16.43;7.97;;;9.10;99.90;;;;;;5013147;28;20490;-81
2021/03/29 03:21:53;;;;;;;15.40;8.80;;;9.10;99.90;;;;;;5013271;28;20415;-81
2021/03/29 03:24:21;;;;;;;8.47;6.13;;;9.10;99.90;;;;;;5023071;28;20559;-81
2021/03/29 03:26:51;;;;;;;14.20;7.63;;;9.20;99.90;;;;;;5013911;28;20436;-81
2021/03/29 03:29:22;;;;;;;14.53;7.13;;;9.20;99.90;;;;;;5013493;28;20811;-81
2021/03/29 03:31:55;;;;;;;14.47;7.70;;;9.20;99.90;;;;;;5014016;28;20423;-81
2021/03/29 03:34:23;;;;;;;10.90;7.70;;;9.20;99.90;;;;;;4996665;28;20771;-81
2021/03/29 03:36:50;;;;;;;9.43;7.40;;;9.20;99.90;;;;;;5013310;28;20423;-81
2021/03/29 03:39:21;;;;;;;10.30;8.13;;;9.20;99.90;;;;;;5014230;28;20486;-81
2021/03/29 03:41:50;;;;;;;14.90;8.10;;;9.20;99.90;;;;;;5013277;28;20431;-81
2021/03/29 03:44:21;;;;;;;11.10;8.63;;;9.20;99.90;;;;;;5013061;28;20877;-81
2021/03/29 03:46:54;;;;;;;12.00;8.43;;;9.20;99.90;;;;;;5013903;28;20985;-81
2021/03/29 03:49:27;;;;;;;9.53;7.60;;;9.10;99.90;;;;;;5012988;28;20411;-81
2021/03/29 03:52:03;;;;;;;11.60;7.90;;;9.20;99.90;;;;;;5017314;28;20495;-81
2021/03/29 03:54:34;;;;;;;13.10;7.20;;;9.20;99.90;;;;;;5026748;28;20940;-81
2021/03/29 03:57:09;;;;;;;13.30;7.00;;;9.10;99.90;;;;;;5001066;28;20447;-81
2021/03/29 03:59:35;;;;;;;13.10;7.40;;;9.10;99.90;;;;;;5033241;28;20467;-81
2021/03/29 04:02:06;;;;;;;18.40;7.90;;;9.10;99.90;;;;;;5016693;28;20423;-81
2021/03/29 04:04:40;;;;;;;11.03;8.13;;;9.10;99.90;;;;;;5017495;28;20412;-81
2021/03/29 04:07:10;;;;;;;12.33;8.37;;;9.10;99.90;;;;;;5000799;28;20502;-81
2021/03/29 04:09:52;;;;;;;14.47;8.00;;;9.10;99.90;;;;;;5017798;28;20412;-81
2021/03/29 04:12:23;;;;;;;14.03;6.50;;;9.10;99.90;;;;;;5017390;28;20457;-81
2021/03/29 04:14:51;;;;;;;12.47;8.00;;;9.10;99.90;;;;;;5016699;28;20451;-81
2021/03/29 04:17:19;;;;;;;12.27;8.20;;;9.10;99.90;;;;;;5016742;28;20490;-81
2021/03/29 04:19:48;;;;;;;11.77;8.47;;;9.00;99.90;;;;;;5017056;28;20507;-81
2021/03/29 04:22:14;;;;;;;9.73;8.30;;;9.00;99.90;;;;;;5017500;28;20442;-81
2021/03/29 04:24:40;;;;;;;9.27;7.30;;;9.00;99.90;;;;;;5027450;28;20432;-80
2021/03/29 04:27:08;;;;;;;14.33;8.83;;;9.00;99.90;;;;;;5017041;28;20427;-82
2021/03/29 04:29:34;;;;;;;9.97;6.90;;;9.00;99.90;;;;;;5017385;28;20493;-81
2021/03/29 04:32:02;;;;;;;9.37;7.70;;;9.00;99.90;;;;;;5017391;28;20513;-81
2021/03/29 04:34:30;;;;;;;18.93;7.07;;;9.10;99.90;;;;;;5016114;28;20532;-81
2021/03/29 04:37:02;;;;;;;11.90;7.70;;;9.00;99.90;;;;;;5016086;28;20419;-81
2021/03/29 04:39:30;;;;;;;11.97;7.00;;;9.00;99.90;;;;;;5016143;28;20404;-81
2021/03/29 04:42:01;;;;;;;14.77;8.03;;;8.90;99.90;;;;;;5016621;28;20446;-81
2021/03/29 04:44:31;;;;;;;12.87;6.97;;;9.00;99.90;;;;;;5016811;28;20499;-81
2021/03/29 04:46:59;;;;;;;15.23;8.80;;;9.00;99.90;;;;;;5016183;28;20429;-81
2021/03/29 04:49:26;;;;;;;9.20;8.30;;;9.00;99.90;;;;;;5016673;28;20775;-81
2021/03/29 04:51:54;;;;;;;11.57;8.73;;;9.00;99.90;;;;;;5015826;28;20424;-81
2021/03/29 04:54:22;;;;;;;11.03;7.90;;;9.00;99.90;;;;;;5019296;28;20466;-81
2021/03/29 04:56:53;;;;;;;8.87;8.00;;;9.00;99.90;;;;;;5036463;28;20424;-81
2021/03/29 04:59:23;;;;;;;14.43;7.83;;;9.00;99.90;;;;;;5019260;28;20418;-80
2021/03/29 05:01:54;;;;;;;11.47;7.90;;;9.00;99.90;;;;;;5036165;28;20433;-80
2021/03/29 05:04:22;;;;;;;16.73;8.77;;;8.90;99.90;;;;;;5034969;28;20469;-80
2021/03/29 05:06:48;;;;;;;11.73;7.30;;;8.90;99.90;;;;;;5035244;28;20521;-81
2021/03/29 05:09:14;;;;;;;10.60;8.17;;;8.90;99.90;;;;;;5036397;28;20499;-81
2021/03/29 05:11:54;;;;;;;9.90;8.13;;;8.90;99.90;;;;;;5032752;28;20524;-80
2021/03/29 05:14:27;;;;;;;16.57;9.67;;;8.90;99.90;;;;;;5015585;28;20467;-80
2021/03/29 05:16:55;;;;;;;10.10;9.10;;;8.90;99.90;;;;;;5016175;28;20411;-81
2021/03/29 05:19:21;;;;;;;16.67;8.30;;;8.90;99.90;;;;;;5014978;28;20870;-80
2021/03/29 05:21:47;;;;;;;18.33;9.07;;;8.80;99.90;;;;;;5015254;28;20416;-81
2021/03/29 05:24:15;;;;;;;9.10;7.17;;;8.80;99.90;;;;;;5025864;28;20445;-81
2021/03/29 05:26:46;;;;;;;11.77;8.10;;;8.80;99.90;;;;;;5019013;28;20495;-81
2021/03/29 05:29:15;;;;;;;15.30;7.70;;;8.80;99.90;;;;;;5035766;28;20434;-81
2021/03/29 05:31:43;;;;;;;8.13;7.43;;;8.80;99.90;;;;;;5034909;28;20459;-80
2021/03/29 05:34:11;;;;;;;10.90;7.47;;;8.80;99.90;;;;;;5035900;28;20469;-80
2021/03/29 05:36:46;;;;;;;11.63;7.30;;;8.80;99.90;;;;;;5035661;28;20436;-81
2021/03/29 05:39:19;;;;;;;7.63;6.90;;;8.80;99.90;;;;;;5034952;28;20450;-81
2021/03/29 05:41:45;;;;;;;11.10;7.80;;;8.80;99.90;;;;;;5014851;28;20444;-81
2021/03/29 05:44:14;;;;;;;19.10;9.73;;;8.80;99.90;;;;;;5015032;28;20443;-80
2021/03/29 05:46:42;;;;;;;11.30;8.20;;;8.80;99.90;;;;;;5015927;28;20416;-81
2021/03/29 05:49:08;;;;;;;13.80;7.40;;;8.90;99.90;;;;;;5015534;28;20775;-80
2021/03/29 05:51:41;;;;;;;13.00;7.70;;;8.80;99.90;;;;;;5031010;28;20901;-81
2021/03/29 05:54:09;;;;;;;11.60;7.20;;;8.90;99.90;;;;;;5025023;28;20549;-80
2021/03/29 05:56:41;;;;;;;15.50;8.40;;;9.00;99.90;;;;;;5034346;28;20424;-80
2021/03/29 05:59:16;;;;;;;10.03;7.47;;;8.90;99.90;;;;;;5035214;28;20411;-80
2021/03/29 06:01:52;;;;;;;15.10;8.00;;;9.00;99.90;;;;;;5035147;28;20513;-80
2021/03/29 06:04:52;;;;;;;10.63;7.20;;;9.00;99.90;;;;;;5035100;28;20436;-79
2021/03/29 06:07:29;;;;;;;16.73;7.80;;;9.00;99.90;;;;;;5034936;28;20423;-80
2021/03/29 06:10:10;;;;;;;12.90;8.67;;;9.10;99.90;;;;;;5035294;28;20477;-80
2021/03/29 06:12:46;;;;;;;13.37;7.93;;;9.10;99.90;;;;;;5024393;28;20437;-80
2021/03/29 06:15:17;;;;;;;15.67;8.33;;;9.20;99.90;;;;;;5013219;28;20551;-79
2021/03/29 06:17:48;;;;;;;10.30;7.70;;;9.30;99.90;;;;;;5014493;28;20529;-80
2021/03/29 06:20:16;;;;;;;12.40;7.63;;;9.30;99.90;;;;;;5014035;28;20459;-82
2021/03/29 06:22:45;;;;;;;12.57;8.60;;;9.40;99.90;;;;;;5014358;28;20493;-82
2021/03/29 06:25:23;;;;;;;10.97;7.90;;;9.50;99.90;;;;;;5034416;28;20501;-81
2021/03/29 06:27:58;;;;;;;14.30;8.50;;;9.70;99.90;;;;;;5033870;28;20437;-84
2021/03/29 06:30:37;;;;;;;7.83;5.83;;;9.70;99.90;;;;;;5033872;28;20474;-81
2021/03/29 06:33:16;;;;;;;12.33;7.47;;;9.80;99.90;;;;;;5035473;28;20435;-81
2021/03/29 06:35:51;;;;;;;14.70;7.30;;;9.80;99.90;;;;;;5033879;28;20435;-82
2021/03/29 06:38:27;;;;;;;13.57;8.20;;;9.90;99.90;;;;;;5034381;28;20407;-82
2021/03/29 06:41:00;;;;;;;16.73;9.97;;;10.00;99.90;;;;;;5034418;28;20446;-82
2021/03/29 06:43:31;;;;;;;10.37;8.60;;;10.10;99.90;;;;;;5033578;28;20542;-82
2021/03/29 06:46:06;;;;;;;11.83;8.07;;;10.10;99.90;;;;;;5017267;28;20428;-83
2021/03/29 06:48:37;;;;;;;19.90;9.00;;;10.20;99.90;;;;;;5000550;28;20429;-82
2021/03/29 06:51:23;;;;;;;12.23;7.73;;;10.20;99.90;;;;;;5018792;28;20930;-82
2021/03/29 06:54:12;;;;;;;12.23;9.30;;;10.30;99.90;;;;;;5016952;28;20463;-82
2021/03/29 06:56:50;;;;;;;11.57;9.20;;;10.50;99.90;;;;;;5013287;28;20431;-82
2021/03/29 06:59:26;;;;;;;11.90;9.50;;;10.60;99.90;;;;;;5010032;28;20443;-82
2021/03/29 07:01:55;;;;;;;13.53;9.20;;;10.60;99.90;;;;;;5014135;28;20475;-81
2021/03/29 07:04:32;;;;;;;8.93;7.97;;;10.70;99.90;;;;;;5020956;28;20440;-82
2021/03/29 07:07:00;;;;;;;10.50;8.40;;;10.80;99.90;;;;;;5013733;28;20444;-78
2021/03/29 07:09:33;;;;;;;16.93;8.10;;;10.90;99.90;;;;;;5016981;28;20460;-79
2021/03/29 07:12:03;;;;;;;9.63;7.70;;;11.00;99.90;;;;;;5017989;28;20514;-79
2021/03/29 07:14:35;;;;;;;13.17;9.50;;;11.10;99.90;;;;;;5013046;28;20478;-79
2021/03/29 07:17:05;;;;;;;10.47;7.87;;;11.10;99.90;;;;;;5022374;28;20466;-78
2021/03/29 07:19:39;;;;;;;11.43;8.37;;;11.20;99.90;;;;;;5027900;28;20522;-79
2021/03/29 07:22:08;;;;;;;11.67;8.10;;;11.30;99.90;;;;;;5021910;28;20474;-78
2021/03/29 07:24:36;;;;;;;15.37;8.03;;;11.40;99.90;;;;;;5020821;28;20439;-79
2021/03/29 07:27:07;;;;;;;10.97;8.67;;;11.50;99.90;;;;;;5029151;28;20585;-79
2021/03/29 07:29:48;;;;;;;15.23;9.20;;;11.60;99.90;;;;;;5025878;28;20891;-79
2021/03/29 07:32:36;;;;;;;11.93;7.67;;;11.80;99.90;;;;;;5023526;28;20422;-78
2021/03/29 07:35:04;;;;;;;12.00;8.07;;;11.90;99.90;;;;;;5007505;28;20537;-80
2021/03/29 07:37:52;;;;;;;17.70;7.60;;;12.00;99.90;;;;;;5029534;28;20428;-79
2021/03/29 07:40:23;;;;;;;8.93;6.73;;;12.10;99.90;;;;;;5012463;28;20433;-80
2021/03/29 07:43:07;;;;;;;10.23;6.70;;;12.20;99.90;;;;;;5023546;28;20773;-79
2021/03/29 07:45:35;;;;;;;10.60;8.20;;;12.20;99.90;;;;;;5012643;28;20433;-79
2021/03/29 07:48:05;;;;;;;13.17;8.80;;;12.40;99.50;;;;;;5014741;28;20557;-79
2021/03/29 07:50:31;;;;;;;15.03;10.67;;;12.40;99.30;;;;;;5031529;28;20767;-79
2021/03/29 07:53:03;;;;;;;13.30;7.43;;;12.50;99.50;;;;;;5022495;28;20431;-79
2021/03/29 07:55:45;;;;;;;15.20;8.97;;;12.40;99.30;;;;;;5030220;28;20467;-80
2021/03/29 07:58:14;;;;;;;8.63;7.60;;;12.50;99.20;;;;;;5024305;28;20439;-79
2021/03/29 08:00:42;;;;;;;17.10;9.80;;;12.60;99.20;;;;;;5022663;28;20437;-79
2021/03/29 08:03:11;;;;;;;11.77;7.03;;;12.60;99.30;;;;;;5026701;28;20445;-79
2021/03/29 08:05:45;;;;;;;14.20;9.90;;;12.60;99.20;;;;;;5012366;28;20905;-81
2021/03/29 08:11:02;;;;;;;9.93;9.03;;;12.90;99.60;;;;;;5021193;28;20911;-79
2021/03/29 08:13:44;;;;;;;10.33;8.20;;;13.00;99.00;;;;;;5015662;28;20430;-79
2021/03/29 08:16:30;;;;;;;10.73;7.50;;;13.10;98.40;;;;;;5029608;28;20447;-79
2021/03/29 08:19:18;;;;;;;10.40;6.90;;;13.20;98.60;;;;;;5018158;28;20804;-78
2021/03/29 08:22:02;;;;;;;11.40;7.63;;;13.30;98.50;;;;;;5024291;28;20423;-80
2021/03/29 08:24:32;;;;;;;11.57;6.83;;;13.50;98.00;;;;;;5018468;28;20776;-80
2021/03/29 08:27:18;;;;;;;11.80;7.00;;;13.60;97.80;;;;;;5006626;28;20968;-80
2021/03/29 08:29:45;;;;;;;13.00;8.57;;;13.70;98.00;;;;;;5013976;28;20785;-79
2021/03/29 08:32:34;;;;;;;10.73;8.90;;;13.80;98.00;;;;;;5011933;28;20989;-79
2021/03/29 08:35:04;;;;;;;9.53;6.77;;;14.00;97.20;;;;;;5030420;28;20477;-80
2021/03/29 08:37:40;;;;;;;16.70;8.23;;;14.10;97.20;;;;;;5024026;28;20431;-80
2021/03/29 08:40:20;;;;;;;8.47;7.37;;;14.30;97.10;;;;;;5019070;28;20436;-79
2021/03/29 08:42:48;;;;;;;8.17;7.47;;;14.40;97.20;;;;;;5012337;28;20427;-80
2021/03/29 08:45:17;;;;;;;7.07;6.37;;;14.60;97.20;;;;;;5028046;28;20437;-80
2021/03/29 08:47:49;;;;;;;7.60;6.97;;;14.80;96.50;;;;;;5024176;28;20829;-80
2021/03/29 08:50:21;;;;;;;9.03;7.47;;;15.00;95.20;;;;;;5021762;28;20435;-81
2021/03/29 08:52:50;;;;;;;8.37;7.10;;;15.00;94.40;;;;;;5026100;28;20420;-81
2021/03/29 08:55:22;;;;;;;12.53;7.30;;;15.00;94.40;;;;;;5016138;28;20526;-81
2021/03/29 08:57:50;;;;;;;9.93;8.33;;;15.20;94.80;;;;;;5031199;28;20904;-81
2021/03/29 09:00:19;;;;;;;9.70;7.20;;;15.30;94.40;;;;;;4993557;28;20455;-81
2021/03/29 09:02:45;;;;;;;7.30;6.60;;;15.30;94.90;;;;;;5028599;28;20435;-81
2021/03/29 09:05:16;;;;;;;8.80;7.20;;;15.50;95.00;;;;;;5024289;28;20444;-81
2021/03/29 09:07:48;;;;;;;7.80;7.00;;;15.70;94.60;;;;;;5021957;28;20428;-81
2021/03/29 09:10:34;;;;;;;7.80;6.77;;;15.90;93.10;;;;;;5031324;28;20516;-79
2021/03/29 09:13:18;;;;;;;8.77;6.07;;;16.00;92.20;;;;;;5018486;28;20439;-79
2021/03/29 09:15:51;;;;;;;7.90;7.10;;;16.10;91.60;;;;;;5024189;28;20538;-80
2021/03/29 09:18:24;;;;;;;9.10;7.00;;;16.20;91.70;;;;;;5031119;28;20501;-80
2021/03/29 09:20:52;;;;;;;7.60;6.80;;;16.30;91.30;;;;;;5022929;28;20432;-79
2021/03/29 09:23:28;;;;;;;8.00;7.20;;;16.40;91.40;;;;;;5030508;28;20435;-79
2021/03/29 09:25:59;;;;;;;7.40;6.50;;;16.60;90.50;;;;;;5022018;28;20427;-80
2021/03/29 09:31:09;;;;;;;8.13;6.17;;;16.90;90.70;;;;;;5015088;28;20428;-80
2021/03/29 09:33:41;;;;;;;9.80;7.70;;;17.10;88.80;;;;;;4997968;28;20444;-79
2021/03/29 09:36:12;;;;;;;11.60;6.30;;;17.10;87.80;;;;;;5014689;28;20504;-79
2021/03/29 09:38:49;;;;;;;8.63;7.73;;;17.20;85.80;;;;;;5023570;28;20479;-80
2021/03/29 09:41:29;;;;;;;9.73;7.10;;;17.40;84.00;;;;;;5021606;28;20439;-80
2021/03/29 09:43:58;;;;;;;7.30;6.80;;;17.50;79.50;;;;;;5014663;28;20650;-80
2021/03/29 09:46:32;;;;;;;5.90;5.40;;;17.50;74.60;;;;;;5027002;28;20500;-80
2021/03/29 09:49:11;;;;;;;7.13;6.53;;;17.60;73.70;;;;;;5026155;28;20428;-79
2021/03/29 09:51:41;;;;;;;7.80;7.00;;;17.70;72.20;;;;;;5007161;28;20825;-81
2021/03/29 09:54:28;;;;;;;7.07;6.57;;;17.70;70.30;;;;;;5024076;28;20469;-81
2021/03/29 09:56:57;;;;;;;11.23;6.40;;;17.80;71.10;;;;;;5012890;28;20447;-81
2021/03/29 09:59:32;;;;;;;13.33;7.03;;;17.90;70.20;;;;;;5025805;28;20431;-82
2021/03/29 10:01:58;;;;;;;8.40;7.67;;;18.00;66.00;;;;;;5014633;28;20953;-80
2021/03/29 10:04:25;;;;;;;8.10;7.30;;;18.10;67.30;;;;;;5014837;28;20484;-80
2021/03/29 10:06:57;;;;;;;9.97;7.00;;;18.10;66.50;;;;;;5014625;28;20426;-80
2021/03/29 10:09:36;;;;;;;7.30;6.60;;;18.20;62.70;;;;;;5023128;28;20854;-80
2021/03/29 10:12:07;;;;;;;8.77;7.97;;;18.20;61.60;;;;;;5014768;28;20537;-80
2021/03/29 10:14:39;;;;;;;8.03;7.37;;;18.30;60.20;;;;;;5013719;28;21023;-83
2021/03/29 10:17:20;;;;;;;8.03;7.17;;;18.20;59.00;;;;;;5014795;28;20521;-83
2021/03/29 10:19:49;;;;;;;7.50;6.77;;;18.40;60.50;;;;;;5015906;28;20480;-82
2021/03/29 10:22:19;;;;;;;8.47;7.40;;;18.60;61.20;;;;;;5019720;28;20490;-83
2021/03/29 10:25:05;;;;;;;7.60;7.00;;;18.60;59.10;;;;;;5023769;28;20445;-83
2021/03/29 10:27:55;;;;;;;7.73;6.87;;;18.80;57.80;;;;;;5021796;28;20841;-83
2021/03/29 10:30:29;;;;;;;8.87;6.47;;;18.90;57.20;;;;;;5022800;28;20496;-83
2021/03/29 10:32:58;;;;;;;10.33;7.47;;;19.10;58.80;;;;;;5020505;28;20459;-83
2021/03/29 10:35:28;;;;;;;8.10;7.30;;;19.30;58.70;;;;;;5015757;28;20584;-83
2021/03/29 10:37:55;;;;;;;8.20;7.50;;;19.60;57.10;;;;;;5025450;28;20466;-83
2021/03/29 10:40:22;;;;;;;9.27;7.93;;;19.70;55.70;;;;;;5016917;28;20438;-84
2021/03/29 10:42:48;;;;;;;8.40;7.77;;;19.80;54.00;;;;;;5003810;28;20440;-83
2021/03/29 10:45:16;;;;;;;9.80;6.77;;;19.80;54.20;;;;;;5015944;28;20457;-83
2021/03/29 10:47:43;;;;;;;8.30;7.60;;;19.90;53.90;;;;;;5017777;28;20449;-83
2021/03/29 10:50:14;;;;;;;8.77;8.17;;;20.10;56.10;;;;;;5013903;28;20445;-82
2021/03/29 10:52:43;;;;;;;8.43;7.43;;;20.10;52.50;;;;;;5004077;28;20852;-82
2021/03/29 10:55:15;;;;;;;6.60;5.93;;;19.90;51.80;;;;;;5007562;28;20464;-83
2021/03/29 10:57:41;;;;;;;7.40;6.50;;;20.00;53.00;;;;;;5013198;28;21030;-83
2021/03/29 11:00:08;;;;;;;8.50;7.83;;;20.10;52.70;;;;;;5019735;28;20428;-83
2021/03/29 11:02:39;;;;;;;8.50;7.67;;;20.20;52.60;;;;;;5006167;28;20458;-84
2021/03/29 11:05:06;;;;;;;6.90;6.27;;;20.10;51.20;;;;;;5013458;28;20422;-84
2021/03/29 11:07:32;;;;;;;9.20;8.30;;;20.10;53.10;;;;;;5020783;28;20474;-83
2021/03/29 11:10:00;;;;;;;8.83;7.93;;;20.30;53.20;;;;;;5020485;28;20522;-83
2021/03/29 11:12:27;;;;;;;8.70;7.90;;;20.50;52.80;;;;;;5012842;28;20441;-80
2021/03/29 11:14:53;;;;;;;8.07;7.43;;;20.80;52.80;;;;;;5020413;28;20494;-80
2021/03/29 11:17:25;;;;;;;7.70;7.10;;;21.00;52.60;;;;;;5015286;28;20436;-79
2021/03/29 11:19:51;;;;;;;13.37;7.53;;;21.30;50.90;;;;;;5023545;28;20455;-79
2021/03/29 11:22:17;;;;;;;6.77;6.37;;;21.50;50.20;;;;;;5015854;28;20433;-79
2021/03/29 11:24:45;;;;;;;8.03;7.20;;;21.60;49.80;;;;;;5025820;28;20790;-80
2021/03/29 11:27:11;;;;;;;8.37;7.63;;;21.30;48.50;;;;;;5021864;28;20420;-81
2021/03/29 11:29:37;;;;;;;7.83;7.43;;;21.20;48.50;;;;;;5022343;28;20505;-81
2021/03/29 11:32:06;;;;;;;7.90;7.20;;;21.20;48.50;;;;;;5032720;28;20822;-80
2021/03/29 11:34:32;;;;;;;6.93;6.33;;;21.30;47.50;;;;;;5026080;28;20523;-80
2021/03/29 11:36:58;;;;;;;7.83;7.33;;;21.40;46.50;;;;;;5021821;28;20457;-79
2021/03/29 11:39:24;;;;;;;7.80;7.20;;;21.30;46.60;;;;;;5021302;28;20490;-80
2021/03/29 11:41:53;;;;;;;8.87;8.17;;;21.20;47.00;;;;;;5019300;28;20817;-80
2021/03/29 11:44:19;;;;;;;6.70;6.30;;;21.40;47.80;;;;;;5015369;28;20449;-79
2021/03/29 11:46:45;;;;;;;8.63;8.13;;;21.50;47.80;;;;;;5020875;28;20424;-79
2021/03/29 11:49:11;;;;;;;7.83;7.23;;;21.60;47.20;;;;;;5012452;28;20461;-79
2021/03/29 11:51:40;;;;;;;7.80;7.20;;;21.50;45.80;;;;;;5013703;28;20424;-79
2021/03/29 11:54:09;;;;;;;8.67;7.80;;;21.80;46.70;;;;;;5019334;28;20475;-80
2021/03/29 11:56:38;;;;;;;8.33;7.70;;;21.80;45.70;;;;;;5028877;28;20896;-77
2021/03/29 11:59:05;;;;;;;7.63;7.03;;;22.00;46.60;;;;;;5014991;28;20971;-78
2021/03/29 12:04:11;;;;;;;8.23;6.20;;;22.60;46.50;;;;;;5015087;28;20419;-92
2021/03/29 12:06:44;;;;;;;6.70;6.10;;;22.50;44.50;;;;;;5008908;28;20746;-90
2021/03/29 12:09:21;;;;;;;7.70;7.00;;;22.40;45.70;;;;;;5014909;28;20435;-87
2021/03/29 12:12:03;;;;;;;7.53;6.83;;;22.20;45.40;;;;;;5021670;28;20443;-86
2021/03/29 12:14:37;;;;;;;7.47;6.50;;;22.20;45.70;;;;;;5033391;28;20468;-86
2021/03/29 12:17:08;;;;;;;7.10;6.20;;;22.40;45.20;;;;;;5024544;28;20476;-85
2021/03/29 12:19:39;;;;;;;9.17;7.93;;;22.60;44.90;;;;;;5019856;28;20471;-90
2021/03/29 12:22:16;;;;;;;8.50;7.70;;;22.70;42.50;;;;;;5025613;28;20524;-80
2021/03/29 12:24:49;;;;;;;8.50;8.00;;;22.60;43.90;;;;;;5023839;28;20444;-78
2021/03/29 12:27:16;;;;;;;9.30;7.57;;;22.60;43.10;;;;;;5026893;28;20562;-79
2021/03/29 12:29:44;;;;;;;8.70;8.10;;;22.60;43.20;;;;;;5025168;28;20445;-76
2021/03/29 12:32:18;;;;;;;7.17;6.60;;;22.40;42.10;;;;;;5025348;28;20511;-79
2021/03/29 12:34:47;;;;;;;8.20;7.10;;;22.10;42.40;;;;;;5024439;28;20472;-77
2021/03/29 12:37:16;;;;;;;6.80;6.30;;;22.00;44.20;;;;;;5022599;28;20756;-77
2021/03/29 12:39:45;;;;;;;7.17;6.73;;;22.00;44.70;;;;;;5018001;28;20524;-77
2021/03/29 12:42:13;;;;;;;6.70;6.10;;;22.00;44.10;;;;;;5028086;28;20435;-80
2021/03/29 12:44:42;;;;;;;7.23;6.60;;;22.10;45.70;;;;;;5024235;28;20517;-79
2021/03/29 12:47:15;;;;;;;7.90;5.90;;;22.40;45.10;;;;;;5024614;28;20441;-77
2021/03/29 12:49:41;;;;;;;8.90;8.30;;;22.60;44.10;;;;;;5028920;28;20530;-76
2021/03/29 12:52:07;;;;;;;10.20;9.07;;;22.60;40.50;;;;;;5024468;28;20501;-78
2021/03/29 12:54:37;;;;;;;7.67;7.00;;;22.60;40.60;;;;;;5011409;28;20567;-78
2021/03/29 12:57:08;;;;;;;9.40;8.60;;;22.60;41.40;;;;;;5015963;28;20446;-79
2021/03/29 12:59:34;;;;;;;8.73;8.00;;;22.80;41.20;;;;;;5024861;28;20514;-78
2021/03/29 13:02:00;;;;;;;8.07;7.57;;;22.70;40.10;;;;;;5015335;28;20819;-78
2021/03/29 13:11:58;;;;;;;9.07;8.03;;;22.80;40.60;;;;;;5027744;28;20442;-78
2021/03/29 13:14:25;;;;;;;7.73;7.23;;;22.70;40.00;;;;;;5023020;28;20488;-78
2021/03/29 13:16:51;;;;;;;7.57;6.87;;;22.90;39.80;;;;;;5015853;28;20431;-78
2021/03/29 13:19:22;;;;;;;9.50;8.37;;;22.90;40.50;;;;;;5015840;28;20828;-78
2021/03/29 13:21:48;;;;;;;7.93;7.43;;;22.80;40.90;;;;;;5008045;28;21199;-78
2021/03/29 13:24:14;;;;;;;10.10;8.87;;;22.90;41.30;;;;;;5026607;28;20521;-78